createdAt,value
2018-09-14T00:00:58.945Z,0.00
2018-09-14T00:01:59.200Z,0.00
2018-09-14T00:02:58.927Z,0.00
2018-09-14T00:03:58.918Z,0.00
2018-09-14T00:04:58.902Z,0.00
2018-09-14T00:05:58.892Z,0.00
2018-09-14T00:06:58.886Z,0.00
2018-09-14T00:07:58.868Z,0.00
2018-09-14T00:08:59.138Z,0.00
2018-09-14T00:09:59.110Z,0.00
2018-09-14T00:10:58.840Z,0.00
2018-09-14T00:11:58.836Z,0.00
2018-09-14T00:12:58.814Z,0.00
2018-09-14T00:13:59.070Z,0.00
2018-09-14T00:14:58.799Z,0.00
2018-09-14T00:15:58.924Z,0.00
2018-09-14T00:16:59.053Z,0.00
2018-09-14T00:17:59.063Z,0.00
2018-09-14T00:18:58.752Z,0.00
2018-09-14T00:19:59.021Z,0.00
2018-09-14T00:20:58.735Z,0.00
2018-09-14T00:21:58.717Z,0.00
2018-09-14T00:22:58.828Z,0.00
2018-09-14T00:23:58.707Z,0.00
2018-09-14T00:24:58.693Z,0.00
2018-09-14T00:25:58.701Z,0.00
2018-09-14T00:26:58.733Z,0.00
2018-09-14T00:27:58.651Z,0.00
2018-09-14T00:28:58.650Z,0.00
2018-09-14T00:29:58.632Z,0.00
2018-09-14T00:30:58.618Z,0.00
2018-09-14T00:31:58.878Z,0.00
2018-09-14T00:32:58.593Z,0.00
2018-09-14T00:33:58.590Z,0.00
2018-09-14T00:34:58.581Z,0.00
2018-09-14T00:35:58.579Z,0.00
2018-09-14T00:36:58.632Z,0.00
2018-09-14T00:37:58.559Z,0.00
2018-09-14T00:38:58.533Z,0.00
2018-09-14T00:39:58.564Z,0.00
2018-09-14T00:40:58.510Z,0.00
2018-09-14T00:41:58.497Z,0.00
2018-09-14T00:42:58.498Z,0.00
2018-09-14T00:43:58.476Z,0.00
2018-09-14T00:44:58.485Z,0.00
2018-09-14T00:45:58.736Z,0.00
2018-09-14T00:46:58.444Z,0.00
2018-09-14T00:47:58.430Z,0.00
2018-09-14T00:48:58.687Z,0.00
2018-09-14T00:49:58.415Z,0.00
2018-09-14T00:50:58.403Z,0.00
2018-09-14T00:51:58.386Z,0.00
2018-09-14T00:52:58.494Z,0.00
2018-09-14T00:53:58.369Z,0.00
2018-09-14T00:54:58.356Z,0.00
2018-09-14T00:55:58.344Z,0.00
2018-09-14T00:56:58.332Z,0.00
2018-09-14T00:57:58.322Z,0.00
2018-09-14T00:58:58.316Z,0.00
2018-09-14T00:59:58.307Z,0.00
2018-09-14T01:00:59.352Z,0.00
2018-09-14T01:01:58.277Z,0.00
2018-09-14T01:02:58.265Z,0.00
2018-09-14T01:03:58.261Z,0.00
2018-09-14T01:04:58.260Z,0.00
2018-09-14T01:05:58.235Z,0.00
2018-09-14T01:06:58.230Z,0.00
2018-09-14T01:07:58.344Z,0.00
2018-09-14T01:08:58.205Z,0.00
2018-09-14T01:09:58.191Z,0.00
2018-09-14T01:10:58.179Z,0.00
2018-09-14T01:11:58.167Z,0.00
2018-09-14T01:12:58.420Z,0.00
2018-09-14T01:13:58.407Z,0.00
2018-09-14T01:14:58.138Z,0.00
2018-09-14T01:15:58.125Z,0.00
2018-09-14T01:16:58.383Z,0.00
2018-09-14T01:17:58.108Z,0.00
2018-09-14T01:18:58.092Z,0.00
2018-09-14T01:19:58.087Z,0.00
2018-09-14T01:20:58.071Z,0.00
2018-09-14T01:21:58.058Z,0.00
2018-09-14T01:22:58.049Z,0.00
2018-09-14T01:23:58.302Z,0.00
2018-09-14T01:24:58.032Z,0.00
2018-09-14T01:25:58.016Z,0.00
2018-09-14T01:26:58.005Z,0.00
2018-09-14T01:27:57.991Z,0.00
2018-09-14T01:28:57.986Z,0.00
2018-09-14T01:29:57.980Z,0.00
2018-09-14T01:30:57.964Z,0.00
2018-09-14T01:31:57.948Z,0.00
2018-09-14T01:32:57.940Z,0.00
2018-09-14T01:33:57.927Z,0.00
2018-09-14T01:34:58.199Z,0.00
2018-09-14T01:35:57.910Z,0.00
2018-09-14T01:36:57.905Z,0.00
2018-09-14T01:37:57.884Z,0.00
2018-09-14T01:38:57.872Z,0.00
2018-09-14T01:39:57.863Z,0.00
2018-09-14T01:40:57.866Z,0.00
2018-09-14T01:41:57.840Z,0.00
2018-09-14T01:42:57.842Z,0.00
2018-09-14T01:43:57.821Z,0.00
2018-09-14T01:44:57.818Z,0.00
2018-09-14T01:45:57.802Z,0.00
2018-09-14T01:46:58.305Z,0.00
2018-09-14T01:47:57.791Z,0.00
2018-09-14T01:48:57.764Z,0.00
2018-09-14T01:49:57.759Z,0.00
2018-09-14T01:50:57.744Z,0.00
2018-09-14T01:51:57.732Z,0.00
2018-09-14T01:52:57.980Z,0.00
2018-09-14T01:53:57.723Z,0.00
2018-09-14T01:54:57.700Z,0.00
2018-09-14T01:55:57.686Z,0.00
2018-09-14T01:56:57.674Z,0.00
2018-09-14T01:57:57.664Z,0.00
2018-09-14T01:58:57.655Z,0.00
2018-09-14T01:59:57.645Z,0.00
2018-09-14T02:00:57.667Z,0.00
2018-09-14T02:01:57.634Z,0.00
2018-09-14T02:02:57.622Z,0.00
2018-09-14T02:03:57.708Z,0.00
2018-09-14T02:04:57.614Z,0.00
2018-09-14T02:05:57.580Z,0.00
2018-09-14T02:06:57.566Z,0.00
2018-09-14T02:07:57.561Z,0.00
2018-09-14T02:08:57.546Z,0.00
2018-09-14T02:09:57.533Z,0.00
2018-09-14T02:10:57.525Z,0.00
2018-09-14T02:11:57.514Z,0.00
2018-09-14T02:12:57.500Z,0.00
2018-09-14T02:13:57.491Z,0.00
2018-09-14T02:14:57.740Z,0.00
2018-09-14T02:15:57.577Z,0.00
2018-09-14T02:16:57.460Z,0.00
2018-09-14T02:17:57.449Z,0.00
2018-09-14T02:18:57.438Z,0.00
2018-09-14T02:19:57.427Z,0.00
2018-09-14T02:20:57.416Z,0.00
2018-09-14T02:21:57.682Z,0.00
2018-09-14T02:22:57.496Z,0.00
2018-09-14T02:23:57.401Z,0.00
2018-09-14T02:24:57.371Z,0.00
2018-09-14T02:25:57.376Z,0.00
2018-09-14T02:26:57.361Z,0.00
2018-09-14T02:27:57.340Z,0.00
2018-09-14T02:28:57.325Z,0.00
2018-09-14T02:29:57.321Z,0.00
2018-09-14T02:30:57.602Z,0.00
2018-09-14T02:31:57.307Z,0.00
2018-09-14T02:32:57.289Z,0.00
2018-09-14T02:33:57.803Z,0.00
2018-09-14T02:34:57.260Z,0.00
2018-09-14T02:35:57.511Z,0.00
2018-09-14T02:36:57.238Z,0.00
2018-09-14T02:37:57.228Z,0.00
2018-09-14T02:38:57.275Z,0.00
2018-09-14T02:39:57.207Z,0.00
2018-09-14T02:40:57.196Z,0.00
2018-09-14T02:41:57.183Z,0.00
2018-09-14T02:42:57.172Z,0.00
2018-09-14T02:43:57.165Z,0.00
2018-09-14T02:44:57.155Z,0.00
2018-09-14T02:45:57.142Z,0.00
2018-09-14T02:46:57.392Z,0.00
2018-09-14T02:47:57.131Z,0.00
2018-09-14T02:48:57.124Z,0.00
2018-09-14T02:49:57.097Z,0.00
2018-09-14T02:50:57.488Z,0.00
2018-09-14T02:51:57.072Z,0.00
2018-09-14T02:52:57.073Z,0.00
2018-09-14T02:53:57.069Z,0.00
2018-09-14T02:54:57.039Z,0.00
2018-09-14T02:55:57.038Z,0.00
2018-09-14T02:56:57.017Z,0.00
2018-09-14T02:57:57.009Z,0.00
2018-09-14T02:58:57.000Z,0.00
2018-09-14T02:59:57.009Z,0.00
2018-09-14T03:00:56.983Z,0.00
2018-09-14T03:01:56.968Z,0.00
2018-09-14T03:02:57.216Z,0.00
2018-09-14T03:03:56.945Z,0.00
2018-09-14T03:04:56.938Z,0.00
2018-09-14T03:05:56.937Z,0.00
2018-09-14T03:06:56.912Z,0.00
2018-09-14T03:07:57.170Z,0.00
2018-09-14T03:08:56.948Z,0.00
2018-09-14T03:09:56.876Z,0.00
2018-09-14T03:10:56.879Z,0.00
2018-09-14T03:11:56.862Z,0.00
2018-09-14T03:12:56.842Z,0.00
2018-09-14T03:13:56.839Z,0.00
2018-09-14T03:14:56.833Z,0.00
2018-09-14T03:15:56.811Z,0.00
2018-09-14T03:16:57.318Z,0.00
2018-09-14T03:17:57.045Z,0.00
2018-09-14T03:18:56.775Z,0.00
2018-09-14T03:19:57.031Z,0.00
2018-09-14T03:20:56.757Z,0.00
2018-09-14T03:21:56.746Z,0.00
2018-09-14T03:22:56.758Z,0.00
2018-09-14T03:23:56.984Z,0.00
2018-09-14T03:24:56.713Z,0.00
2018-09-14T03:25:56.705Z,0.00
2018-09-14T03:26:56.981Z,0.00
2018-09-14T03:27:56.679Z,0.00
2018-09-14T03:28:56.686Z,0.00
2018-09-14T03:29:56.762Z,0.00
2018-09-14T03:30:56.775Z,0.00
2018-09-14T03:31:56.659Z,0.00
2018-09-14T03:32:56.742Z,0.00
2018-09-14T03:33:56.621Z,0.00
2018-09-14T03:34:56.606Z,0.00
2018-09-14T03:35:56.599Z,0.00
2018-09-14T03:36:56.581Z,0.00
2018-09-14T03:37:56.567Z,0.00
2018-09-14T03:38:56.568Z,0.00
2018-09-14T03:39:56.558Z,0.00
2018-09-14T03:40:56.550Z,0.00
2018-09-14T03:41:56.527Z,0.00
2018-09-14T03:42:56.517Z,0.00
2018-09-14T03:43:56.770Z,0.00
2018-09-14T03:44:56.493Z,0.00
2018-09-14T03:45:57.207Z,0.00
2018-09-14T03:46:56.471Z,0.00
2018-09-14T03:47:56.462Z,0.00
2018-09-14T03:48:56.459Z,0.00
2018-09-14T03:49:56.444Z,0.00
2018-09-14T03:50:56.427Z,0.00
2018-09-14T03:51:56.416Z,0.00
2018-09-14T03:52:56.404Z,0.00
2018-09-14T03:53:56.520Z,0.00
2018-09-14T03:54:56.393Z,0.00
2018-09-14T03:55:56.376Z,0.00
2018-09-14T03:56:56.375Z,0.00
2018-09-14T03:57:56.377Z,0.00
2018-09-14T03:58:56.342Z,0.00
2018-09-14T03:59:56.327Z,0.00
2018-09-14T04:00:56.426Z,0.00
2018-09-14T04:01:56.320Z,0.00
2018-09-14T04:02:56.296Z,0.00
2018-09-14T04:03:56.285Z,0.00
2018-09-14T04:04:56.277Z,0.00
2018-09-14T04:05:56.282Z,0.00
2018-09-14T04:06:56.255Z,0.00
2018-09-14T04:07:56.354Z,0.00
2018-09-14T04:08:56.244Z,0.00
2018-09-14T04:09:56.226Z,0.00
2018-09-14T04:10:56.487Z,0.00
2018-09-14T04:11:56.204Z,0.00
2018-09-14T04:12:56.190Z,0.00
2018-09-14T04:13:56.176Z,0.00
2018-09-14T04:14:56.169Z,0.00
2018-09-14T04:15:56.164Z,0.00
2018-09-14T04:16:56.406Z,0.00
2018-09-14T04:17:56.139Z,0.00
2018-09-14T04:18:56.733Z,0.00
2018-09-14T04:19:56.114Z,0.00
2018-09-14T04:20:56.185Z,0.00
2018-09-14T04:21:56.100Z,0.00
2018-09-14T04:22:56.080Z,0.00
2018-09-14T04:23:56.081Z,0.00
2018-09-14T04:24:56.077Z,0.00
2018-09-14T04:25:56.072Z,0.00
2018-09-14T04:26:56.035Z,0.00
2018-09-14T04:27:56.295Z,0.00
2018-09-14T04:28:56.162Z,0.00
2018-09-14T04:29:56.006Z,0.00
2018-09-14T04:30:56.259Z,0.00
2018-09-14T04:31:56.017Z,0.00
2018-09-14T04:32:55.969Z,0.00
2018-09-14T04:33:55.957Z,0.00
2018-09-14T04:34:55.947Z,0.00
2018-09-14T04:35:55.965Z,4.00
2018-09-14T04:36:55.934Z,4.00
2018-09-14T04:37:55.942Z,4.00
2018-09-14T04:38:55.903Z,0.00
2018-09-14T04:39:55.896Z,4.00
2018-09-14T04:40:55.885Z,4.00
2018-09-14T04:41:55.879Z,8.00
2018-09-14T04:42:56.126Z,8.00
2018-09-14T04:43:55.866Z,8.00
2018-09-14T04:44:55.844Z,8.00
2018-09-14T04:45:55.836Z,12.00
2018-09-14T04:46:55.938Z,12.00
2018-09-14T04:47:55.810Z,16.00
2018-09-14T04:48:55.794Z,20.00
2018-09-14T04:49:55.788Z,24.00
2018-09-14T04:50:56.101Z,28.00
2018-09-14T04:51:55.766Z,32.00
2018-09-14T04:52:55.788Z,40.00
2018-09-14T04:53:55.740Z,48.00
2018-09-14T04:54:55.993Z,56.00
2018-09-14T04:55:55.722Z,60.00
2018-09-14T04:56:55.814Z,68.00
2018-09-14T04:57:55.700Z,76.00
2018-09-14T04:58:55.683Z,84.00
2018-09-14T04:59:55.682Z,96.00
2018-09-14T05:00:55.675Z,104.00
2018-09-14T05:01:55.650Z,120.00
2018-09-14T05:02:55.764Z,128.00
2018-09-14T05:03:55.783Z,144.00
2018-09-14T05:04:55.644Z,152.00
2018-09-14T05:05:55.608Z,164.00
2018-09-14T05:06:55.623Z,164.00
2018-09-14T05:07:55.596Z,172.00
2018-09-14T05:08:55.843Z,176.00
2018-09-14T05:09:55.827Z,188.00
2018-09-14T05:10:55.559Z,204.00
2018-09-14T05:11:55.548Z,220.00
2018-09-14T05:12:55.692Z,232.00
2018-09-14T05:13:55.865Z,252.00
2018-09-14T05:14:55.512Z,268.00
2018-09-14T05:15:55.538Z,292.00
2018-09-14T05:16:55.494Z,316.00
2018-09-14T05:17:55.483Z,344.00
2018-09-14T05:18:55.466Z,372.00
2018-09-14T05:19:55.476Z,404.00
2018-09-14T05:20:55.466Z,432.00
2018-09-14T05:21:55.479Z,464.00
2018-09-14T05:22:55.444Z,492.00
2018-09-14T05:23:55.463Z,524.00
2018-09-14T05:24:55.503Z,548.00
2018-09-14T05:25:55.393Z,568.00
2018-09-14T05:26:55.380Z,584.00
2018-09-14T05:27:55.488Z,596.00
2018-09-14T05:28:55.380Z,620.00
2018-09-14T05:29:55.349Z,648.00
2018-09-14T05:30:55.342Z,676.00
2018-09-14T05:31:55.325Z,720.00
2018-09-14T05:32:55.318Z,764.00
2018-09-14T05:33:55.574Z,812.00
2018-09-14T05:34:55.295Z,860.00
2018-09-14T05:35:55.286Z,904.00
2018-09-14T05:36:55.324Z,944.00
2018-09-14T05:37:55.263Z,984.00
2018-09-14T05:38:55.258Z,1032.00
2018-09-14T05:39:55.242Z,1088.00
2018-09-14T05:40:55.232Z,1136.00
2018-09-14T05:41:55.268Z,1176.00
2018-09-14T05:42:55.245Z,1228.00
2018-09-14T05:43:55.210Z,1296.00
2018-09-14T05:44:55.192Z,1376.00
2018-09-14T05:45:55.444Z,1468.00
2018-09-14T05:46:55.170Z,1552.00
2018-09-14T05:47:55.416Z,1640.00
2018-09-14T05:48:55.140Z,1720.00
2018-09-14T05:49:55.136Z,1784.00
2018-09-14T05:50:55.118Z,1832.00
2018-09-14T05:51:55.123Z,1872.00
2018-09-14T05:52:55.110Z,1940.00
2018-09-14T05:53:55.199Z,2036.00
2018-09-14T05:54:55.076Z,2144.00
2018-09-14T05:55:55.095Z,2232.00
2018-09-14T05:56:55.559Z,2312.00
2018-09-14T05:57:55.444Z,2364.00
2018-09-14T05:58:55.030Z,2420.00
2018-09-14T05:59:55.034Z,2476.00
2018-09-14T06:00:55.289Z,2524.00
2018-09-14T06:01:55.268Z,2528.00
2018-09-14T06:02:54.993Z,2488.00
2018-09-14T06:03:54.981Z,2484.00
2018-09-14T06:04:54.970Z,2500.00
2018-09-14T06:05:54.956Z,2532.00
2018-09-14T06:06:54.974Z,2568.00
2018-09-14T06:07:55.077Z,2628.00
2018-09-14T06:08:54.927Z,2668.00
2018-09-14T06:09:55.045Z,2676.00
2018-09-14T06:10:54.911Z,2668.00
2018-09-14T06:11:54.905Z,2592.00
2018-09-14T06:12:54.892Z,2432.00
2018-09-14T06:13:54.882Z,2252.00
2018-09-14T06:14:54.860Z,2084.00
2018-09-14T06:15:54.848Z,1944.00
2018-09-14T06:16:55.163Z,1852.00
2018-09-14T06:17:54.823Z,1816.00
2018-09-14T06:18:56.321Z,1816.00
2018-09-14T06:19:54.804Z,1820.00
2018-09-14T06:20:54.794Z,1824.00
2018-09-14T06:21:54.798Z,1832.00
2018-09-14T06:22:55.119Z,1852.00
2018-09-14T06:23:54.761Z,1896.00
2018-09-14T06:24:54.753Z,1936.00
2018-09-14T06:25:54.738Z,1972.00
2018-09-14T06:26:54.734Z,2012.00
2018-09-14T06:27:54.716Z,2048.00
2018-09-14T06:28:54.722Z,2080.00
2018-09-14T06:29:54.710Z,2112.00
2018-09-14T06:30:54.946Z,2160.00
2018-09-14T06:31:54.667Z,2236.00
2018-09-14T06:32:54.670Z,2316.00
2018-09-14T06:33:54.649Z,2396.00
2018-09-14T06:34:54.643Z,2464.00
2018-09-14T06:35:54.624Z,2532.00
2018-09-14T06:36:54.630Z,2612.00
2018-09-14T06:37:54.603Z,2700.00
2018-09-14T06:38:54.594Z,2792.00
2018-09-14T06:39:54.695Z,2876.00
2018-09-14T06:40:54.569Z,2960.00
2018-09-14T06:41:54.565Z,3056.00
2018-09-14T06:42:54.571Z,3148.00
2018-09-14T06:43:54.541Z,3240.00
2018-09-14T06:44:54.937Z,3324.00
2018-09-14T06:45:54.520Z,3368.00
2018-09-14T06:46:54.506Z,3388.00
2018-09-14T06:47:54.500Z,3420.00
2018-09-14T06:48:54.494Z,3484.00
2018-09-14T06:49:54.471Z,3580.00
2018-09-14T06:50:54.460Z,3652.00
2018-09-14T06:51:54.479Z,3648.00
2018-09-14T06:52:54.437Z,3604.00
2018-09-14T06:53:54.703Z,3568.00
2018-09-14T06:54:54.680Z,3580.00
2018-09-14T06:55:54.406Z,3608.00
2018-09-14T06:56:55.618Z,3596.00
2018-09-14T06:57:54.427Z,3540.00
2018-09-14T06:58:54.388Z,3488.00
2018-09-14T06:59:54.741Z,3484.00
2018-09-14T07:00:54.369Z,3516.00
2018-09-14T07:01:54.502Z,3528.00
2018-09-14T07:02:54.330Z,3504.00
2018-09-14T07:03:54.638Z,3480.00
2018-09-14T07:04:54.561Z,3496.00
2018-09-14T07:05:54.305Z,3540.00
2018-09-14T07:06:54.319Z,3600.00
2018-09-14T07:07:54.281Z,3636.00
2018-09-14T07:08:54.352Z,3700.00
2018-09-14T07:09:54.256Z,3796.00
2018-09-14T07:10:54.251Z,3880.00
2018-09-14T07:11:54.231Z,3912.00
2018-09-14T07:12:56.155Z,3892.00
2018-09-14T07:13:54.222Z,3844.00
2018-09-14T07:14:56.392Z,3796.00
2018-09-14T07:15:54.192Z,3740.00
2018-09-14T07:16:54.177Z,3688.00
2018-09-14T07:17:54.174Z,3672.00
2018-09-14T07:18:54.158Z,3720.00
2018-09-14T07:19:54.153Z,3820.00
2018-09-14T07:20:54.133Z,3936.00
2018-09-14T07:21:54.215Z,4012.00
2018-09-14T07:22:54.249Z,4028.00
2018-09-14T07:23:54.109Z,4004.00
2018-09-14T07:24:54.494Z,3996.00
2018-09-14T07:25:54.363Z,3996.00
2018-09-14T07:26:54.072Z,4032.00
2018-09-14T07:27:54.088Z,4088.00
2018-09-14T07:28:54.070Z,4168.00
2018-09-14T07:29:54.300Z,4260.00
2018-09-14T07:30:54.727Z,4348.00
2018-09-14T07:31:54.099Z,4444.00
2018-09-14T07:32:54.012Z,4532.00
2018-09-14T07:33:53.990Z,4600.00
2018-09-14T07:34:54.140Z,4644.00
2018-09-14T07:35:53.975Z,4708.00
2018-09-14T07:36:53.953Z,4836.00
2018-09-14T07:37:54.814Z,5024.00
2018-09-14T07:38:53.939Z,5244.00
2018-09-14T07:39:53.973Z,5416.00
2018-09-14T07:40:53.957Z,5592.00
2018-09-14T07:41:56.662Z,5856.00
2018-09-14T07:42:54.047Z,6156.00
2018-09-14T07:43:54.010Z,6380.00
2018-09-14T07:44:54.143Z,6588.00
2018-09-14T07:45:53.989Z,6856.00
2018-09-14T07:46:54.005Z,7144.00
2018-09-14T07:47:54.103Z,7476.00
2018-09-14T07:48:53.873Z,7660.00
2018-09-14T07:49:53.890Z,7704.00
2018-09-14T07:50:53.843Z,7640.00
2018-09-14T07:51:53.794Z,7556.00
2018-09-14T07:52:53.814Z,7616.00
2018-09-14T07:53:54.065Z,7444.00
2018-09-14T07:54:53.773Z,7380.00
2018-09-14T07:55:53.749Z,7256.00
2018-09-14T07:56:53.745Z,6972.00
2018-09-14T07:57:53.723Z,6876.00
2018-09-14T07:58:54.276Z,6960.00
2018-09-14T07:59:53.774Z,6900.00
2018-09-14T08:00:53.692Z,6772.00
2018-09-14T08:01:53.728Z,6752.00
2018-09-14T08:02:53.787Z,6712.00
2018-09-14T08:03:53.661Z,6656.00
2018-09-14T08:04:53.653Z,6656.00
2018-09-14T08:05:53.656Z,6612.00
2018-09-14T08:06:53.645Z,6568.00
2018-09-14T08:07:53.626Z,6540.00
2018-09-14T08:08:53.603Z,6532.00
2018-09-14T08:09:53.604Z,6508.00
2018-09-14T08:10:53.600Z,6476.00
2018-09-14T08:11:53.620Z,6436.00
2018-09-14T08:12:53.839Z,6408.00
2018-09-14T08:13:53.805Z,6400.00
2018-09-14T08:14:53.557Z,6388.00
2018-09-14T08:15:58.866Z,6376.00
2018-09-14T08:16:53.533Z,6360.00
2018-09-14T08:17:53.502Z,6364.00
2018-09-14T08:18:54.006Z,6376.00
2018-09-14T08:19:53.499Z,6376.00
2018-09-14T08:20:53.550Z,6368.00
2018-09-14T08:21:53.662Z,6336.00
2018-09-14T08:22:53.496Z,6312.00
2018-09-14T08:23:53.879Z,6320.00
2018-09-14T08:24:53.434Z,6348.00
2018-09-14T08:25:53.688Z,6372.00
2018-09-14T08:26:53.433Z,6384.00
2018-09-14T08:27:53.415Z,6388.00
2018-09-14T08:28:53.386Z,6380.00
2018-09-14T08:29:53.390Z,6376.00
2018-09-14T08:30:53.723Z,6376.00
2018-09-14T08:31:53.369Z,6368.00
2018-09-14T08:32:53.341Z,6376.00
2018-09-14T08:33:53.652Z,6360.00
2018-09-14T08:34:53.333Z,6344.00
2018-09-14T08:35:53.307Z,6332.00
2018-09-14T08:36:53.432Z,6324.00
2018-09-14T08:37:53.295Z,6320.00
2018-09-14T08:38:53.291Z,6304.00
2018-09-14T08:39:53.277Z,6292.00
2018-09-14T08:40:53.513Z,6296.00
2018-09-14T08:41:53.635Z,6304.00
2018-09-14T08:42:53.365Z,6316.00
2018-09-14T08:43:53.540Z,6340.00
2018-09-14T08:44:53.475Z,6364.00
2018-09-14T08:45:53.199Z,6388.00
2018-09-14T08:46:53.192Z,6428.00
2018-09-14T08:47:53.255Z,6444.00
2018-09-14T08:48:53.215Z,6420.00
2018-09-14T08:49:53.701Z,6392.00
2018-09-14T08:50:53.419Z,6368.00
2018-09-14T08:51:53.265Z,6352.00
2018-09-14T08:52:53.142Z,6340.00
2018-09-14T08:53:53.257Z,6328.00
2018-09-14T08:54:53.106Z,6304.00
2018-09-14T08:55:53.134Z,6264.00
2018-09-14T08:56:53.079Z,6232.00
2018-09-14T08:57:53.091Z,6216.00
2018-09-14T08:58:53.628Z,6212.00
2018-09-14T08:59:53.069Z,6204.00
2018-09-14T09:00:53.094Z,6196.00
2018-09-14T09:01:53.025Z,6176.00
2018-09-14T09:02:53.009Z,6156.00
2018-09-14T09:03:53.150Z,6152.00
2018-09-14T09:04:52.995Z,6164.00
2018-09-14T09:05:52.991Z,6184.00
2018-09-14T09:06:53.255Z,6196.00
2018-09-14T09:07:53.030Z,6208.00
2018-09-14T09:08:53.232Z,6212.00
2018-09-14T09:09:52.942Z,6220.00
2018-09-14T09:10:53.389Z,6232.00
2018-09-14T09:11:53.035Z,6268.00
2018-09-14T09:12:52.912Z,6340.00
2018-09-14T09:13:53.023Z,6524.00
2018-09-14T09:14:52.903Z,6756.00
2018-09-14T09:15:53.136Z,6936.00
2018-09-14T09:16:52.878Z,7112.00
2018-09-14T09:17:53.238Z,7520.00
2018-09-14T09:18:52.841Z,7828.00
2018-09-14T09:19:52.892Z,7888.00
2018-09-14T09:20:53.078Z,7644.00
2018-09-14T09:21:52.806Z,8100.00
2018-09-14T09:22:52.794Z,8400.00
2018-09-14T09:23:52.801Z,9372.00
2018-09-14T09:24:54.972Z,9868.00
2018-09-14T09:25:52.762Z,10296.00
2018-09-14T09:26:52.753Z,10336.00
2018-09-14T09:27:52.785Z,10104.00
2018-09-14T09:28:52.746Z,9728.00
2018-09-14T09:29:52.978Z,9600.00
2018-09-14T09:30:52.716Z,9916.00
2018-09-14T09:31:52.699Z,10492.00
2018-09-14T09:32:52.685Z,10768.00
2018-09-14T09:33:52.952Z,10840.00
2018-09-14T09:34:52.659Z,11116.00
2018-09-14T09:35:52.670Z,11292.00
2018-09-14T09:36:52.643Z,11612.00
2018-09-14T09:37:52.637Z,12184.00
2018-09-14T09:38:52.619Z,12456.00
2018-09-14T09:39:52.738Z,12944.00
2018-09-14T09:40:53.073Z,13736.00
2018-09-14T09:41:52.582Z,13976.00
2018-09-14T09:42:53.672Z,14288.00
2018-09-14T09:43:52.988Z,14388.00
2018-09-14T09:44:52.818Z,14528.00
2018-09-14T09:45:52.550Z,14804.00
2018-09-14T09:46:52.532Z,15292.00
2018-09-14T09:47:52.519Z,15920.00
2018-09-14T09:48:52.601Z,16544.00
2018-09-14T09:49:52.505Z,16188.00
2018-09-14T09:50:52.601Z,16112.00
2018-09-14T09:51:52.501Z,15744.00
2018-09-14T09:52:52.610Z,15244.00
2018-09-14T09:53:52.456Z,15776.00
2018-09-14T09:54:52.449Z,15848.00
2018-09-14T09:55:52.466Z,15336.00
2018-09-14T09:56:52.992Z,14860.00
2018-09-14T09:57:52.413Z,13800.00
2018-09-14T09:58:52.602Z,12920.00
2018-09-14T09:59:52.412Z,12012.00
2018-09-14T10:00:52.393Z,11752.00
2018-09-14T10:01:52.638Z,11396.00
2018-09-14T10:02:52.513Z,10892.00
2018-09-14T10:03:52.403Z,10572.00
2018-09-14T10:04:52.352Z,9972.00
2018-09-14T10:05:52.329Z,9464.00
2018-09-14T10:06:52.337Z,9196.00
2018-09-14T10:07:52.560Z,8784.00
2018-09-14T10:08:52.297Z,8536.00
2018-09-14T10:09:52.421Z,8220.00
2018-09-14T10:10:52.282Z,8080.00
2018-09-14T10:11:52.279Z,8052.00
2018-09-14T10:12:52.418Z,8068.00
2018-09-14T10:13:52.502Z,8096.00
2018-09-14T10:14:52.257Z,8340.00
2018-09-14T10:15:52.231Z,8756.00
2018-09-14T10:16:52.228Z,9668.00
2018-09-14T10:17:52.727Z,10188.00
2018-09-14T10:18:52.188Z,10188.00
2018-09-14T10:19:52.202Z,9876.00
2018-09-14T10:20:52.379Z,9476.00
2018-09-14T10:21:52.217Z,8992.00
2018-09-14T10:22:52.152Z,8396.00
2018-09-14T10:23:52.148Z,7808.00
2018-09-14T10:24:52.392Z,7408.00
2018-09-14T10:25:52.137Z,7996.00
2018-09-14T10:26:52.163Z,8484.00
2018-09-14T10:27:52.126Z,8984.00
2018-09-14T10:28:52.078Z,9788.00
2018-09-14T10:29:52.105Z,9900.00
2018-09-14T10:30:52.052Z,10168.00
2018-09-14T10:31:52.318Z,10756.00
2018-09-14T10:32:52.030Z,11136.00
2018-09-14T10:33:52.319Z,11528.00
2018-09-14T10:34:52.354Z,12140.00
2018-09-14T10:35:52.017Z,12844.00
2018-09-14T10:36:52.034Z,13064.00
2018-09-14T10:37:52.242Z,12648.00
2018-09-14T10:38:51.964Z,12252.00
2018-09-14T10:39:51.957Z,12156.00
2018-09-14T10:40:52.105Z,12272.00
2018-09-14T10:41:51.940Z,12600.00
2018-09-14T10:42:52.150Z,12904.00
2018-09-14T10:43:51.909Z,13288.00
2018-09-14T10:44:52.172Z,13656.00
2018-09-14T10:45:51.928Z,13920.00
2018-09-14T10:46:51.935Z,13472.00
2018-09-14T10:47:51.883Z,12920.00
2018-09-14T10:48:51.960Z,12788.00
2018-09-14T10:49:52.336Z,12712.00
2018-09-14T10:50:52.337Z,12636.00
2018-09-14T10:51:51.840Z,12828.00
2018-09-14T10:52:51.821Z,13068.00
2018-09-14T10:53:51.801Z,13472.00
2018-09-14T10:54:51.818Z,13952.00
2018-09-14T10:55:51.778Z,14048.00
2018-09-14T10:56:51.805Z,14132.00
2018-09-14T10:57:51.778Z,14208.00
2018-09-14T10:58:51.772Z,14320.00
2018-09-14T10:59:52.020Z,14556.00
2018-09-14T11:00:51.742Z,14812.00
2018-09-14T11:01:51.737Z,15012.00
2018-09-14T11:02:51.972Z,15040.00
2018-09-14T11:03:51.703Z,14692.00
2018-09-14T11:04:51.684Z,14404.00
2018-09-14T11:05:51.962Z,14128.00
2018-09-14T11:06:51.717Z,13700.00
2018-09-14T11:07:51.917Z,13308.00
2018-09-14T11:08:51.899Z,12820.00
2018-09-14T11:09:51.670Z,12724.00
2018-09-14T11:10:51.613Z,12824.00
2018-09-14T11:11:51.631Z,12360.00
2018-09-14T11:12:51.597Z,11544.00
2018-09-14T11:13:51.843Z,10932.00
2018-09-14T11:14:51.702Z,10436.00
2018-09-14T11:15:51.580Z,10368.00
2018-09-14T11:16:51.572Z,10680.00
2018-09-14T11:17:51.809Z,11292.00
2018-09-14T11:18:51.584Z,11764.00
2018-09-14T11:19:51.542Z,12180.00
2018-09-14T11:20:51.506Z,12284.00
2018-09-14T11:21:51.489Z,12548.00
2018-09-14T11:22:51.757Z,13052.00
2018-09-14T11:23:51.471Z,13832.00
2018-09-14T11:24:51.588Z,14164.00
2018-09-14T11:25:51.460Z,14264.00
2018-09-14T11:26:51.437Z,14424.00
2018-09-14T11:27:51.479Z,14484.00
2018-09-14T11:28:53.074Z,14744.00
2018-09-14T11:29:51.409Z,14572.00
2018-09-14T11:30:51.390Z,14776.00
2018-09-14T11:31:51.396Z,14668.00
2018-09-14T11:32:51.376Z,14756.00
2018-09-14T11:33:51.373Z,14884.00
2018-09-14T11:34:51.353Z,14732.00
2018-09-14T11:35:51.342Z,14772.00
2018-09-14T11:36:51.344Z,14756.00
2018-09-14T11:37:51.417Z,14356.00
2018-09-14T11:38:51.347Z,13744.00
2018-09-14T11:39:51.310Z,13192.00
2018-09-14T11:40:51.283Z,12820.00
2018-09-14T11:41:51.283Z,12632.00
2018-09-14T11:42:51.266Z,12644.00
2018-09-14T11:43:51.249Z,12772.00
2018-09-14T11:44:51.416Z,13152.00
2018-09-14T11:45:51.543Z,13640.00
2018-09-14T11:46:51.218Z,14088.00
2018-09-14T11:47:51.221Z,14460.00
2018-09-14T11:48:51.240Z,14800.00
2018-09-14T11:49:51.183Z,14972.00
2018-09-14T11:50:51.175Z,14972.00
2018-09-14T11:51:51.240Z,15136.00
2018-09-14T11:52:51.175Z,15696.00
2018-09-14T11:53:51.145Z,16704.00
2018-09-14T11:54:51.151Z,17440.00
2018-09-14T11:55:51.266Z,17504.00
2018-09-14T11:56:51.112Z,16248.00
2018-09-14T11:57:51.108Z,14588.00
2018-09-14T11:58:51.945Z,12552.00
2018-09-14T11:59:51.344Z,10812.00
2018-09-14T12:00:51.082Z,9520.00
2018-09-14T12:01:51.072Z,8688.00
2018-09-14T12:02:51.070Z,8376.00
2018-09-14T12:03:52.035Z,8428.00
2018-09-14T12:04:51.023Z,8892.00
2018-09-14T12:05:51.135Z,9592.00
2018-09-14T12:06:51.013Z,10248.00
2018-09-14T12:07:51.264Z,11160.00
2018-09-14T12:08:51.122Z,11528.00
2018-09-14T12:09:50.979Z,11372.00
2018-09-14T12:10:51.354Z,11120.00
2018-09-14T12:11:50.970Z,10980.00
2018-09-14T12:12:50.975Z,11068.00
2018-09-14T12:13:51.002Z,11376.00
2018-09-14T12:14:50.923Z,11364.00
2018-09-14T12:15:51.505Z,10904.00
2018-09-14T12:16:51.246Z,10316.00
2018-09-14T12:17:50.921Z,9824.00
2018-09-14T12:18:50.895Z,9608.00
2018-09-14T12:19:50.899Z,9604.00
2018-09-14T12:20:50.911Z,9180.00
2018-09-14T12:21:50.845Z,8916.00
2018-09-14T12:22:50.846Z,8684.00
2018-09-14T12:23:50.824Z,8712.00
2018-09-14T12:24:50.812Z,8796.00
2018-09-14T12:25:50.799Z,9272.00
2018-09-14T12:26:50.786Z,9588.00
2018-09-14T12:27:50.777Z,9916.00
2018-09-14T12:28:50.920Z,10324.00
2018-09-14T12:29:50.768Z,10624.00